createdAt,value
2023-01-02T00:00:21.105Z,0.00
2023-01-02T00:01:17.986Z,0.00
2023-01-02T00:02:18.009Z,0.00
2023-01-02T00:03:18.076Z,0.00
2023-01-02T00:04:17.935Z,0.00
2023-01-02T00:05:17.952Z,0.00
2023-01-02T00:06:17.945Z,0.00
2023-01-02T00:07:17.932Z,0.00
2023-01-02T00:08:17.911Z,0.00
2023-01-02T00:09:17.895Z,0.00
2023-01-02T00:10:17.905Z,0.00
2023-01-02T00:11:17.875Z,0.00
2023-01-02T00:12:17.879Z,0.00
2023-01-02T00:13:17.855Z,0.00
2023-01-02T00:14:17.827Z,0.00
2023-01-02T00:15:17.825Z,0.00
2023-01-02T00:16:17.903Z,0.00
2023-01-02T00:17:17.795Z,0.00
2023-01-02T00:18:17.792Z,0.00
2023-01-02T00:19:17.766Z,0.00
2023-01-02T00:20:17.750Z,0.00
2023-01-02T00:21:17.757Z,0.00
2023-01-02T00:22:17.765Z,0.00
2023-01-02T00:23:17.736Z,0.00
2023-01-02T00:24:17.685Z,0.00
2023-01-02T00:25:17.678Z,0.00
2023-01-02T00:26:17.686Z,0.00
2023-01-02T00:27:17.694Z,0.00
2023-01-02T00:28:17.656Z,0.00
2023-01-02T00:29:17.643Z,0.00
2023-01-02T00:30:17.681Z,0.00
2023-01-02T00:31:17.616Z,0.00
2023-01-02T00:32:17.596Z,0.00
2023-01-02T00:33:17.620Z,0.00
2023-01-02T00:34:17.553Z,0.00
2023-01-02T00:35:17.554Z,0.00
2023-01-02T00:36:17.541Z,0.00
2023-01-02T00:37:17.536Z,0.00
2023-01-02T00:38:17.492Z,0.00
2023-01-02T00:39:17.494Z,0.00
2023-01-02T00:40:17.482Z,0.00
2023-01-02T00:41:17.474Z,0.00
2023-01-02T00:42:17.493Z,0.00
2023-01-02T00:43:17.436Z,0.00
2023-01-02T00:44:17.415Z,0.00
2023-01-02T00:45:17.433Z,0.00
2023-01-02T00:46:17.444Z,0.00
2023-01-02T00:47:17.468Z,0.00
2023-01-02T00:48:17.370Z,0.00
2023-01-02T00:49:17.447Z,0.00
2023-01-02T00:50:17.360Z,0.00
2023-01-02T00:51:17.337Z,0.00
2023-01-02T00:52:17.345Z,0.00
2023-01-02T00:53:17.298Z,0.00
2023-01-02T00:54:17.297Z,0.00
2023-01-02T00:55:17.273Z,0.00
2023-01-02T00:56:17.289Z,0.00
2023-01-02T00:57:17.327Z,0.00
2023-01-02T00:58:17.270Z,0.00
2023-01-02T00:59:17.252Z,0.00
2023-01-02T01:00:23.576Z,0.00
2023-01-02T01:01:18.353Z,0.00
2023-01-02T01:02:17.331Z,0.00
2023-01-02T01:03:17.230Z,0.00
2023-01-02T01:04:17.182Z,0.00
2023-01-02T01:05:17.154Z,0.00
2023-01-02T01:06:17.140Z,0.00
2023-01-02T01:07:17.144Z,0.00
2023-01-02T01:08:17.134Z,0.00
2023-01-02T01:09:17.111Z,0.00
2023-01-02T01:10:17.080Z,0.00
2023-01-02T01:11:17.130Z,0.00
2023-01-02T01:12:17.089Z,0.00
2023-01-02T01:13:17.078Z,0.00
2023-01-02T01:14:17.039Z,0.00
2023-01-02T01:15:17.074Z,0.00
2023-01-02T01:16:17.036Z,0.00
2023-01-02T01:17:17.016Z,0.00
2023-01-02T01:18:16.988Z,0.00
2023-01-02T01:19:17.082Z,0.00
2023-01-02T01:20:17.002Z,0.00
2023-01-02T01:21:16.971Z,0.00
2023-01-02T01:22:17.099Z,0.00
2023-01-02T01:23:16.943Z,0.00
2023-01-02T01:24:16.892Z,0.00
2023-01-02T01:25:16.908Z,0.00
2023-01-02T01:26:16.887Z,0.00
2023-01-02T01:27:16.895Z,0.00
2023-01-02T01:28:16.885Z,0.00
2023-01-02T01:29:16.840Z,0.00
2023-01-02T01:30:16.828Z,0.00
2023-01-02T01:31:16.850Z,0.00
2023-01-02T01:32:16.819Z,0.00
2023-01-02T01:33:16.801Z,0.00
2023-01-02T01:34:16.758Z,0.00
2023-01-02T01:35:16.779Z,0.00
2023-01-02T01:36:16.756Z,0.00
2023-01-02T01:37:16.749Z,0.00
2023-01-02T01:38:16.731Z,0.00
2023-01-02T01:39:16.705Z,0.00
2023-01-02T01:40:16.710Z,0.00
2023-01-02T01:41:16.699Z,0.00
2023-01-02T01:42:16.714Z,0.00
2023-01-02T01:43:16.670Z,0.00
2023-01-02T01:44:16.639Z,0.00
2023-01-02T01:45:16.627Z,0.00
2023-01-02T01:46:16.674Z,0.00
2023-01-02T01:47:16.613Z,0.00
2023-01-02T01:48:16.606Z,0.00
2023-01-02T01:49:16.598Z,0.00
2023-01-02T01:50:16.668Z,0.00
2023-01-02T01:51:16.566Z,0.00
2023-01-02T01:52:16.562Z,0.00
2023-01-02T01:53:16.549Z,0.00
2023-01-02T01:54:16.503Z,0.00
2023-01-02T01:55:16.532Z,0.00
2023-01-02T01:56:16.471Z,0.00
2023-01-02T01:57:16.522Z,0.00
2023-01-02T01:58:16.493Z,0.00
2023-01-02T01:59:16.479Z,0.00
2023-01-02T02:00:16.440Z,0.00
2023-01-02T02:01:16.566Z,0.00
2023-01-02T02:02:16.542Z,0.00
2023-01-02T02:03:16.437Z,0.00
2023-01-02T02:04:16.408Z,0.00
2023-01-02T02:05:16.352Z,0.00
2023-01-02T02:06:16.355Z,0.00
2023-01-02T02:07:16.347Z,0.00
2023-01-02T02:08:16.332Z,0.00
2023-01-02T02:09:16.335Z,0.00
2023-01-02T02:10:16.319Z,0.00
2023-01-02T02:11:16.275Z,0.00
2023-01-02T02:12:16.292Z,0.00
2023-01-02T02:13:16.285Z,0.00
2023-01-02T02:14:16.285Z,0.00
2023-01-02T02:15:16.273Z,0.00
2023-01-02T02:16:16.250Z,0.00
2023-01-02T02:17:16.218Z,0.00
2023-01-02T02:18:16.191Z,0.00
2023-01-02T02:19:16.190Z,0.00
2023-01-02T02:20:16.161Z,0.00
2023-01-02T02:21:16.151Z,0.00
2023-01-02T02:22:16.147Z,0.00
2023-01-02T02:23:16.127Z,0.00
2023-01-02T02:24:16.109Z,0.00
2023-01-02T02:25:16.145Z,0.00
2023-01-02T02:26:16.087Z,0.00
2023-01-02T02:27:16.139Z,0.00
2023-01-02T02:28:16.065Z,0.00
2023-01-02T02:29:16.056Z,0.00
2023-01-02T02:30:16.038Z,0.00
2023-01-02T02:31:16.065Z,0.00
2023-01-02T02:32:16.008Z,0.00
2023-01-02T02:33:16.007Z,0.00
2023-01-02T02:34:15.981Z,0.00
2023-01-02T02:35:15.958Z,0.00
2023-01-02T02:36:15.941Z,0.00
2023-01-02T02:37:15.956Z,0.00
2023-01-02T02:38:15.928Z,0.00
2023-01-02T02:39:15.924Z,0.00
2023-01-02T02:40:15.888Z,0.00
2023-01-02T02:41:15.911Z,0.00
2023-01-02T02:42:15.898Z,0.00
2023-01-02T02:43:15.868Z,0.00
2023-01-02T02:44:15.847Z,0.00
2023-01-02T02:45:15.848Z,0.00
2023-01-02T02:46:15.841Z,0.00
2023-01-02T02:47:15.825Z,0.00
2023-01-02T02:48:15.790Z,0.00
2023-01-02T02:49:15.777Z,0.00
2023-01-02T02:50:15.762Z,0.00
2023-01-02T02:51:15.818Z,0.00
2023-01-02T02:52:15.763Z,0.00
2023-01-02T02:53:15.722Z,0.00
2023-01-02T02:54:15.741Z,0.00
2023-01-02T02:55:15.712Z,0.00
2023-01-02T02:56:19.546Z,0.00
2023-01-02T02:57:15.675Z,0.00
2023-01-02T02:58:15.710Z,0.00
2023-01-02T02:59:15.673Z,0.00
2023-01-02T03:00:15.650Z,0.00
2023-01-02T03:01:15.810Z,0.00
2023-01-02T03:02:15.729Z,0.00
2023-01-02T03:03:15.685Z,0.00
2023-01-02T03:04:15.577Z,0.00
2023-01-02T03:05:15.557Z,0.00
2023-01-02T03:06:15.554Z,0.00
2023-01-02T03:07:15.569Z,0.00
2023-01-02T03:08:15.518Z,0.00
2023-01-02T03:09:15.546Z,0.00
2023-01-02T03:10:15.525Z,0.00
2023-01-02T03:11:15.495Z,0.00
2023-01-02T03:12:15.505Z,0.00
2023-01-02T03:13:15.527Z,0.00
2023-01-02T03:14:15.457Z,0.00
2023-01-02T03:15:15.434Z,0.00
2023-01-02T03:16:15.442Z,0.00
2023-01-02T03:17:15.421Z,0.00
2023-01-02T03:18:15.386Z,0.00
2023-01-02T03:19:15.396Z,0.00
2023-01-02T03:20:15.365Z,0.00
2023-01-02T03:21:15.356Z,0.00
2023-01-02T03:22:15.346Z,0.00
2023-01-02T03:23:15.326Z,0.00
2023-01-02T03:24:15.320Z,0.00
2023-01-02T03:25:15.305Z,0.00
2023-01-02T03:26:15.297Z,0.00
2023-01-02T03:27:15.297Z,0.00
2023-01-02T03:28:15.264Z,0.00
2023-01-02T03:29:15.265Z,0.00
2023-01-02T03:30:15.237Z,0.00
2023-01-02T03:31:15.283Z,0.00
2023-01-02T03:32:15.225Z,0.00
2023-01-02T03:33:15.186Z,0.00
2023-01-02T03:34:15.180Z,0.00
2023-01-02T03:35:15.182Z,0.00
2023-01-02T03:36:15.214Z,0.00
2023-01-02T03:37:15.156Z,0.00
2023-01-02T03:38:15.144Z,0.00
2023-01-02T03:39:15.126Z,0.00
2023-01-02T03:40:15.121Z,0.00
2023-01-02T03:41:15.100Z,0.00
2023-01-02T03:42:15.094Z,0.00
2023-01-02T03:43:15.077Z,0.00
2023-01-02T03:44:15.055Z,0.00
2023-01-02T03:45:15.048Z,0.00
2023-01-02T03:46:15.062Z,0.00
2023-01-02T03:47:15.061Z,0.00
2023-01-02T03:48:15.004Z,0.00
2023-01-02T03:49:14.985Z,0.00
2023-01-02T03:50:14.988Z,0.00
2023-01-02T03:51:14.984Z,0.00
2023-01-02T03:52:14.955Z,0.00
2023-01-02T03:53:14.962Z,0.00
2023-01-02T03:54:14.918Z,0.00
2023-01-02T03:55:14.920Z,0.00
2023-01-02T03:56:14.922Z,0.00
2023-01-02T03:57:14.907Z,0.00
2023-01-02T03:58:14.863Z,0.00
2023-01-02T03:59:14.895Z,0.00
2023-01-02T04:00:14.862Z,0.00
2023-01-02T04:01:14.920Z,0.00
2023-01-02T04:02:14.986Z,0.00
2023-01-02T04:03:14.893Z,0.00
2023-01-02T04:04:14.824Z,0.00
2023-01-02T04:05:14.794Z,0.00
2023-01-02T04:06:14.823Z,0.00
2023-01-02T04:07:14.784Z,0.00
2023-01-02T04:08:14.753Z,0.00
2023-01-02T04:09:14.719Z,0.00
2023-01-02T04:10:14.782Z,0.00
2023-01-02T04:11:14.782Z,0.00
2023-01-02T04:12:14.708Z,0.00
2023-01-02T04:13:14.713Z,0.00
2023-01-02T04:14:14.680Z,0.00
2023-01-02T04:15:14.652Z,0.00
2023-01-02T04:16:14.656Z,0.00
2023-01-02T04:17:14.634Z,0.00
2023-01-02T04:18:14.612Z,0.00
2023-01-02T04:19:14.585Z,0.00
2023-01-02T04:20:14.573Z,0.00
2023-01-02T04:21:14.556Z,0.00
2023-01-02T04:22:14.593Z,0.00
2023-01-02T04:23:14.526Z,0.00
2023-01-02T04:24:14.585Z,0.00
2023-01-02T04:25:14.527Z,0.00
2023-01-02T04:26:14.497Z,0.00
2023-01-02T04:27:14.503Z,0.00
2023-01-02T04:28:14.475Z,0.00
2023-01-02T04:29:14.514Z,0.00
2023-01-02T04:30:14.463Z,0.00
2023-01-02T04:31:14.475Z,0.00
2023-01-02T04:32:14.435Z,0.00
2023-01-02T04:33:14.406Z,0.00
2023-01-02T04:34:14.410Z,0.00
2023-01-02T04:35:14.397Z,0.00
2023-01-02T04:36:14.380Z,0.00
2023-01-02T04:37:14.360Z,0.00
2023-01-02T04:38:14.340Z,0.00
2023-01-02T04:39:14.354Z,0.00
2023-01-02T04:40:14.336Z,0.00
2023-01-02T04:41:14.314Z,0.00
2023-01-02T04:42:14.314Z,0.00
2023-01-02T04:43:14.292Z,0.00
2023-01-02T04:44:14.312Z,0.00
2023-01-02T04:45:14.279Z,0.00
2023-01-02T04:46:14.268Z,0.00
2023-01-02T04:47:19.819Z,0.00
2023-01-02T04:48:15.253Z,0.00
2023-01-02T04:49:14.203Z,0.00
2023-01-02T04:50:14.202Z,0.00
2023-01-02T04:51:14.194Z,0.00
2023-01-02T04:52:14.212Z,0.00
2023-01-02T04:53:14.198Z,0.00
2023-01-02T04:54:14.133Z,0.00
2023-01-02T04:55:14.186Z,0.00
2023-01-02T04:56:14.119Z,0.00
2023-01-02T04:57:14.122Z,0.00
2023-01-02T04:58:14.096Z,0.00
2023-01-02T04:59:14.081Z,0.00
2023-01-02T05:00:14.062Z,0.00
2023-01-02T05:01:14.176Z,0.00
2023-01-02T05:02:14.146Z,0.00
2023-01-02T05:03:14.057Z,0.00
2023-01-02T05:04:14.040Z,0.00
2023-01-02T05:05:13.984Z,0.00
2023-01-02T05:06:13.984Z,0.00
2023-01-02T05:07:13.951Z,0.00
2023-01-02T05:08:16.411Z,0.00
2023-01-02T05:09:13.949Z,0.00
2023-01-02T05:10:13.944Z,0.00
2023-01-02T05:11:13.957Z,0.00
2023-01-02T05:12:13.970Z,0.00
2023-01-02T05:13:13.952Z,0.00
2023-01-02T05:14:13.878Z,0.00
2023-01-02T05:15:13.841Z,0.00
2023-01-02T05:16:13.920Z,0.00
2023-01-02T05:17:13.834Z,0.00
2023-01-02T05:18:13.831Z,0.00
2023-01-02T05:19:13.840Z,0.00
2023-01-02T05:20:13.875Z,0.00
2023-01-02T05:21:13.778Z,0.00
2023-01-02T05:22:13.762Z,0.00
2023-01-02T05:23:13.763Z,0.00
2023-01-02T05:24:13.751Z,0.00
2023-01-02T05:25:13.711Z,0.00
2023-01-02T05:26:13.717Z,0.00
2023-01-02T05:27:13.713Z,0.00
2023-01-02T05:28:13.689Z,0.00
2023-01-02T05:29:13.669Z,0.00
2023-01-02T05:30:13.687Z,0.00
2023-01-02T05:31:13.689Z,0.00
2023-01-02T05:32:13.640Z,0.00
2023-01-02T05:33:13.631Z,0.00
2023-01-02T05:34:13.618Z,0.00
2023-01-02T05:35:13.637Z,0.00
2023-01-02T05:36:13.582Z,0.00
2023-01-02T05:37:13.561Z,0.00
2023-01-02T05:38:13.589Z,0.00
2023-01-02T05:39:13.558Z,0.00
2023-01-02T05:40:13.591Z,0.00
2023-01-02T05:41:13.530Z,0.00
2023-01-02T05:42:13.520Z,0.00
2023-01-02T05:43:13.500Z,0.00
2023-01-02T05:44:13.496Z,0.00
2023-01-02T05:45:13.615Z,0.00
2023-01-02T05:46:13.478Z,0.00
2023-01-02T05:47:16.545Z,0.00
2023-01-02T05:48:13.427Z,0.00
2023-01-02T05:49:13.419Z,0.00
2023-01-02T05:50:13.440Z,0.00
2023-01-02T05:51:13.392Z,0.00
2023-01-02T05:52:13.385Z,0.00
2023-01-02T05:53:13.387Z,0.00
2023-01-02T05:54:13.372Z,0.00
2023-01-02T05:55:13.356Z,0.00
2023-01-02T05:56:13.342Z,0.00
2023-01-02T05:57:13.303Z,0.00
2023-01-02T05:58:13.311Z,0.00
2023-01-02T05:59:13.280Z,0.00
2023-01-02T06:00:13.258Z,0.00
2023-01-02T06:01:13.343Z,0.00
2023-01-02T06:02:13.337Z,0.00
2023-01-02T06:03:13.354Z,0.00
2023-01-02T06:04:19.313Z,0.00
2023-01-02T06:05:14.223Z,0.00
2023-01-02T06:06:13.183Z,0.00
2023-01-02T06:07:13.175Z,0.00
2023-01-02T06:08:13.177Z,0.00
2023-01-02T06:09:13.160Z,0.00
2023-01-02T06:10:13.156Z,0.00
2023-01-02T06:11:13.131Z,0.00
2023-01-02T06:12:13.098Z,0.00
2023-01-02T06:13:13.101Z,0.00
2023-01-02T06:14:13.082Z,0.00
2023-01-02T06:15:13.064Z,0.00
2023-01-02T06:16:13.079Z,0.00
2023-01-02T06:17:13.127Z,0.00
2023-01-02T06:18:13.037Z,0.00
2023-01-02T06:19:13.034Z,0.00
2023-01-02T06:20:13.027Z,0.00
2023-01-02T06:21:12.985Z,0.00
2023-01-02T06:22:12.968Z,0.00
2023-01-02T06:23:12.974Z,0.00
2023-01-02T06:24:12.961Z,0.00
2023-01-02T06:25:12.950Z,0.00
2023-01-02T06:26:12.927Z,0.00
2023-01-02T06:27:12.918Z,0.00
2023-01-02T06:28:12.907Z,0.00
2023-01-02T06:29:12.893Z,0.00
2023-01-02T06:30:12.887Z,0.00
2023-01-02T06:31:12.887Z,0.00
2023-01-02T06:32:12.879Z,0.00
2023-01-02T06:33:12.856Z,0.00
2023-01-02T06:34:12.827Z,0.00
2023-01-02T06:35:12.805Z,0.00
2023-01-02T06:36:12.810Z,0.00
2023-01-02T06:37:12.805Z,0.00
2023-01-02T06:38:12.806Z,0.00
2023-01-02T06:39:12.763Z,0.00
2023-01-02T06:40:12.748Z,0.00
2023-01-02T06:41:12.725Z,0.00
2023-01-02T06:42:12.708Z,0.00
2023-01-02T06:43:12.726Z,0.00
2023-01-02T06:44:12.699Z,0.00
2023-01-02T06:45:12.678Z,0.00
2023-01-02T06:46:12.705Z,0.00
2023-01-02T06:47:12.645Z,0.00
2023-01-02T06:48:12.663Z,0.00
2023-01-02T06:49:12.711Z,0.00
2023-01-02T06:50:12.635Z,0.00
2023-01-02T06:51:12.587Z,0.00
2023-01-02T06:52:12.596Z,0.00
2023-01-02T06:53:12.579Z,0.00
2023-01-02T06:54:12.549Z,4.00
2023-01-02T06:55:12.534Z,0.00
2023-01-02T06:56:12.536Z,0.00
2023-01-02T06:57:12.514Z,0.00
2023-01-02T06:58:19.129Z,4.00
2023-01-02T06:59:13.503Z,0.00
2023-01-02T07:00:12.489Z,4.00
2023-01-02T07:01:12.612Z,4.00
2023-01-02T07:02:12.597Z,4.00
2023-01-02T07:03:12.462Z,4.00
2023-01-02T07:04:12.432Z,4.00
2023-01-02T07:05:12.408Z,4.00
2023-01-02T07:06:12.425Z,4.00
2023-01-02T07:07:12.385Z,4.00
2023-01-02T07:08:12.407Z,4.00
2023-01-02T07:09:12.359Z,4.00
2023-01-02T07:10:12.350Z,4.00
2023-01-02T07:11:12.372Z,4.00
2023-01-02T07:12:12.327Z,8.00
2023-01-02T07:13:12.317Z,8.00
2023-01-02T07:14:12.298Z,8.00
2023-01-02T07:15:12.287Z,12.00
2023-01-02T07:16:12.353Z,12.00
2023-01-02T07:17:12.249Z,16.00
2023-01-02T07:18:12.267Z,20.00
2023-01-02T07:19:12.230Z,20.00
2023-01-02T07:20:12.214Z,20.00
2023-01-02T07:21:12.203Z,28.00
2023-01-02T07:22:12.228Z,28.00
2023-01-02T07:23:12.174Z,28.00
2023-01-02T07:24:12.185Z,32.00
2023-01-02T07:25:12.160Z,32.00
2023-01-02T07:26:12.145Z,36.00
2023-01-02T07:27:12.110Z,36.00
2023-01-02T07:28:12.121Z,36.00
2023-01-02T07:29:12.090Z,36.00
2023-01-02T07:30:12.089Z,36.00
2023-01-02T07:31:12.089Z,36.00
2023-01-02T07:32:12.113Z,36.00
2023-01-02T07:33:12.063Z,40.00
2023-01-02T07:34:12.048Z,40.00
2023-01-02T07:35:12.030Z,44.00
2023-01-02T07:36:12.015Z,44.00
2023-01-02T07:37:11.973Z,52.00
2023-01-02T07:38:12.005Z,48.00
2023-01-02T07:39:11.980Z,56.00
2023-01-02T07:40:11.965Z,56.00
2023-01-02T07:41:11.965Z,60.00
2023-01-02T07:42:11.935Z,60.00
2023-01-02T07:43:11.921Z,60.00
2023-01-02T07:44:11.902Z,64.00
2023-01-02T07:45:11.909Z,64.00
2023-01-02T07:46:11.907Z,64.00
2023-01-02T07:47:11.854Z,68.00
2023-01-02T07:48:11.870Z,72.00
2023-01-02T07:49:11.877Z,72.00
2023-01-02T07:50:11.824Z,72.00
2023-01-02T07:51:11.804Z,72.00
2023-01-02T07:52:11.792Z,72.00
2023-01-02T07:53:11.802Z,72.00
2023-01-02T07:54:11.773Z,72.00
2023-01-02T07:55:11.756Z,76.00
2023-01-02T07:56:11.739Z,80.00
2023-01-02T07:57:11.748Z,80.00
2023-01-02T07:58:11.737Z,84.00
2023-01-02T07:59:11.694Z,84.00
2023-01-02T08:00:11.684Z,88.00
2023-01-02T08:01:11.741Z,96.00
2023-01-02T08:02:11.891Z,96.00
2023-01-02T08:03:11.682Z,96.00
2023-01-02T08:04:11.661Z,100.00
2023-01-02T08:05:11.641Z,100.00
2023-01-02T08:06:11.645Z,104.00
2023-01-02T08:07:11.598Z,104.00
2023-01-02T08:08:11.584Z,108.00
2023-01-02T08:09:11.569Z,108.00
2023-01-02T08:10:11.554Z,104.00
2023-01-02T08:11:11.565Z,104.00
2023-01-02T08:12:11.549Z,104.00
2023-01-02T08:13:11.524Z,108.00
2023-01-02T08:14:11.522Z,108.00
2023-01-02T08:15:11.548Z,112.00
2023-01-02T08:16:11.490Z,112.00
2023-01-02T08:17:11.522Z,120.00
2023-01-02T08:18:11.484Z,124.00
2023-01-02T08:19:11.463Z,132.00
2023-01-02T08:20:11.435Z,140.00
2023-01-02T08:21:11.414Z,148.00
2023-01-02T08:22:11.480Z,164.00
2023-01-02T08:23:11.455Z,180.00
2023-01-02T08:24:11.429Z,192.00
2023-01-02T08:25:11.360Z,208.00
2023-01-02T08:26:11.344Z,220.00
2023-01-02T08:27:11.331Z,228.00
2023-01-02T08:28:11.354Z,240.00
2023-01-02T08:29:11.309Z,252.00
2023-01-02T08:30:11.289Z,280.00
2023-01-02T08:31:11.415Z,312.00
2023-01-02T08:32:11.264Z,364.00
2023-01-02T08:33:11.290Z,408.00
2023-01-02T08:34:11.225Z,460.00
2023-01-02T08:35:11.252Z,484.00
2023-01-02T08:36:11.223Z,500.00
2023-01-02T08:37:11.215Z,524.00
2023-01-02T08:38:11.213Z,548.00
2023-01-02T08:39:11.183Z,572.00
2023-01-02T08:40:11.165Z,588.00
2023-01-02T08:41:11.157Z,580.00
2023-01-02T08:42:11.143Z,560.00
2023-01-02T08:43:11.140Z,532.00
2023-01-02T08:44:11.101Z,508.00
2023-01-02T08:45:11.095Z,480.00
2023-01-02T08:46:11.142Z,460.00
2023-01-02T08:47:11.085Z,440.00
2023-01-02T08:48:20.463Z,432.00
2023-01-02T08:49:12.063Z,428.00
2023-01-02T08:50:11.046Z,428.00
2023-01-02T08:51:11.019Z,420.00
2023-01-02T08:52:10.989Z,420.00
2023-01-02T08:53:12.941Z,420.00
2023-01-02T08:54:11.007Z,416.00
2023-01-02T08:55:10.971Z,404.00
2023-01-02T08:56:11.007Z,392.00
2023-01-02T08:57:10.957Z,380.00
2023-01-02T08:58:10.968Z,380.00
2023-01-02T08:59:10.930Z,384.00
2023-01-02T09:00:10.901Z,396.00
2023-01-02T09:01:10.920Z,420.00
2023-01-02T09:02:11.087Z,448.00
2023-01-02T09:03:10.984Z,464.00
2023-01-02T09:04:12.715Z,476.00
2023-01-02T09:05:10.834Z,488.00
2023-01-02T09:06:12.499Z,496.00
2023-01-02T09:07:10.860Z,508.00
2023-01-02T09:08:10.799Z,504.00
2023-01-02T09:09:12.543Z,492.00
2023-01-02T09:10:10.775Z,484.00
2023-01-02T09:11:10.753Z,472.00
2023-01-02T09:12:10.743Z,468.00
2023-01-02T09:13:10.747Z,460.00
2023-01-02T09:14:10.715Z,456.00
2023-01-02T09:15:10.709Z,452.00
2023-01-02T09:16:10.737Z,456.00
2023-01-02T09:17:10.684Z,460.00
2023-01-02T09:18:10.678Z,476.00
2023-01-02T09:19:10.651Z,488.00
2023-01-02T09:20:10.658Z,504.00
2023-01-02T09:21:10.626Z,516.00
2023-01-02T09:22:10.596Z,540.00
2023-01-02T09:23:10.606Z,568.00
2023-01-02T09:24:10.617Z,596.00
2023-01-02T09:25:10.559Z,636.00
2023-01-02T09:26:10.547Z,688.00
2023-01-02T09:27:10.544Z,740.00
2023-01-02T09:28:10.545Z,788.00
2023-01-02T09:29:10.534Z,900.00
2023-01-02T09:30:10.499Z,960.00
2023-01-02T09:31:12.542Z,1172.00
2023-01-02T09:32:10.517Z,948.00
2023-01-02T09:33:10.486Z,952.00
2023-01-02T09:34:10.448Z,984.00
2023-01-02T09:35:10.521Z,1024.00
2023-01-02T09:36:10.426Z,1048.00
2023-01-02T09:37:10.482Z,1048.00
2023-01-02T09:38:10.445Z,1056.00
2023-01-02T09:39:10.387Z,1088.00
2023-01-02T09:40:10.398Z,1120.00
2023-01-02T09:41:10.346Z,1140.00
2023-01-02T09:42:10.327Z,1152.00
2023-01-02T09:43:10.371Z,1160.00
2023-01-02T09:44:10.310Z,1156.00
2023-01-02T09:45:10.307Z,1132.00
2023-01-02T09:46:10.324Z,1116.00
2023-01-02T09:47:10.313Z,1116.00
2023-01-02T09:48:10.275Z,1128.00
2023-01-02T09:49:10.277Z,1144.00
2023-01-02T09:50:10.243Z,1132.00
2023-01-02T09:51:10.238Z,1116.00
2023-01-02T09:52:10.208Z,1080.00
2023-01-02T09:53:10.211Z,1076.00
2023-01-02T09:54:10.193Z,1096.00
2023-01-02T09:55:10.203Z,1120.00
2023-01-02T09:56:10.173Z,1152.00
2023-01-02T09:57:10.143Z,1196.00
2023-01-02T09:58:10.167Z,1232.00
2023-01-02T09:59:10.132Z,1232.00
2023-01-02T10:00:10.098Z,1196.00
2023-01-02T10:01:10.088Z,1152.00
2023-01-02T10:02:10.096Z,1116.00
2023-01-02T10:03:10.226Z,1120.00
2023-01-02T10:04:10.074Z,1140.00
2023-01-02T10:05:10.074Z,1160.00
2023-01-02T10:06:10.048Z,1144.00
2023-01-02T10:07:10.052Z,1164.00
2023-01-02T10:08:09.998Z,1208.00
2023-01-02T10:09:10.006Z,1236.00
2023-01-02T10:10:10.032Z,1256.00
2023-01-02T10:11:09.955Z,1244.00
2023-01-02T10:12:09.954Z,1216.00
2023-01-02T10:13:09.959Z,1172.00
2023-01-02T10:14:19.208Z,1140.00
2023-01-02T10:15:10.934Z,1112.00
2023-01-02T10:16:09.927Z,1096.00
2023-01-02T10:17:09.874Z,1084.00
2023-01-02T10:18:09.871Z,1096.00
2023-01-02T10:19:09.862Z,1156.00
2023-01-02T10:20:09.837Z,1248.00
2023-01-02T10:21:09.820Z,1348.00
2023-01-02T10:22:09.821Z,1456.00
2023-01-02T10:23:09.805Z,1564.00
2023-01-02T10:24:09.783Z,1664.00
2023-01-02T10:25:09.774Z,1788.00
2023-01-02T10:26:09.762Z,1956.00
2023-01-02T10:27:09.753Z,2292.00
2023-01-02T10:28:09.732Z,2340.00
2023-01-02T10:29:09.707Z,1664.00
2023-01-02T10:30:09.696Z,1508.00
2023-01-02T10:31:09.733Z,1420.00
2023-01-02T10:32:09.673Z,1360.00
2023-01-02T10:33:09.668Z,1320.00
2023-01-02T10:34:09.653Z,1304.00
2023-01-02T10:35:09.635Z,1260.00
2023-01-02T10:36:09.654Z,1176.00
2023-01-02T10:37:09.604Z,1088.00
2023-01-02T10:38:09.620Z,1024.00
2023-01-02T10:39:09.597Z,984.00
2023-01-02T10:40:09.580Z,948.00
2023-01-02T10:41:09.591Z,920.00
2023-01-02T10:42:09.539Z,912.00
2023-01-02T10:43:09.559Z,920.00
2023-01-02T10:44:09.596Z,908.00
2023-01-02T10:45:09.503Z,908.00
2023-01-02T10:46:09.535Z,920.00
2023-01-02T10:47:09.485Z,948.00
2023-01-02T10:48:09.485Z,988.00
2023-01-02T10:49:09.479Z,1012.00
2023-01-02T10:50:09.469Z,1048.00
2023-01-02T10:51:09.437Z,1064.00
2023-01-02T10:52:09.415Z,1088.00
2023-01-02T10:53:09.411Z,1112.00
2023-01-02T10:54:09.384Z,1136.00
2023-01-02T10:55:09.374Z,1164.00
2023-01-02T10:56:09.347Z,1164.00
2023-01-02T10:57:09.354Z,1176.00
2023-01-02T10:58:09.342Z,1192.00
2023-01-02T10:59:09.321Z,1240.00
2023-01-02T11:00:09.312Z,1320.00
2023-01-02T11:01:09.364Z,1368.00
2023-01-02T11:02:09.378Z,1360.00
2023-01-02T11:03:09.335Z,1320.00
2023-01-02T11:04:09.243Z,1284.00
2023-01-02T11:05:09.245Z,1240.00
2023-01-02T11:06:25.996Z,1192.00
2023-01-02T11:07:10.225Z,1172.00
2023-01-02T11:08:09.203Z,1188.00
2023-01-02T11:09:09.184Z,1308.00
2023-01-02T11:10:09.180Z,1232.00
2023-01-02T11:11:09.155Z,1216.00
2023-01-02T11:12:09.146Z,1184.00
2023-01-02T11:13:09.149Z,1148.00
2023-01-02T11:14:09.110Z,1116.00
2023-01-02T11:15:09.115Z,1088.00
2023-01-02T11:16:09.121Z,1060.00
2023-01-02T11:17:09.095Z,1060.00
2023-01-02T11:18:09.075Z,1104.00
2023-01-02T11:19:09.068Z,1388.00
2023-01-02T11:20:09.032Z,1304.00
2023-01-02T11:21:09.027Z,1252.00
2023-01-02T11:22:09.052Z,1280.00
2023-01-02T11:23:09.003Z,1300.00
2023-01-02T11:24:08.981Z,1304.00
2023-01-02T11:25:08.983Z,1328.00
2023-01-02T11:26:08.955Z,1340.00
2023-01-02T11:27:08.957Z,1344.00
2023-01-02T11:28:08.944Z,1348.00
2023-01-02T11:29:08.930Z,1368.00
2023-01-02T11:30:08.916Z,1392.00
2023-01-02T11:31:08.956Z,1428.00
2023-01-02T11:32:08.899Z,1444.00
2023-01-02T11:33:08.884Z,1460.00
2023-01-02T11:34:08.844Z,1464.00
2023-01-02T11:35:08.835Z,1468.00
2023-01-02T11:36:08.824Z,1456.00
2023-01-02T11:37:08.837Z,1440.00
2023-01-02T11:38:08.825Z,1440.00
2023-01-02T11:39:08.796Z,1432.00
2023-01-02T11:40:08.765Z,1448.00
2023-01-02T11:41:10.376Z,1452.00
2023-01-02T11:42:08.749Z,1456.00
2023-01-02T11:43:08.795Z,1468.00
2023-01-02T11:44:08.712Z,1468.00
2023-01-02T11:45:08.710Z,1488.00
2023-01-02T11:46:08.709Z,1508.00
2023-01-02T11:47:08.678Z,1504.00
2023-01-02T11:48:08.747Z,1480.00
2023-01-02T11:49:08.657Z,1476.00
2023-01-02T11:50:08.660Z,1476.00
2023-01-02T11:51:11.077Z,1488.00
2023-01-02T11:52:09.643Z,1508.00
2023-01-02T11:53:08.631Z,1524.00
2023-01-02T11:54:08.594Z,1516.00
2023-01-02T11:55:08.578Z,1496.00
2023-01-02T11:56:08.557Z,1480.00
2023-01-02T11:57:11.545Z,1476.00
2023-01-02T11:58:09.538Z,1496.00
2023-01-02T11:59:08.535Z,1500.00
2023-01-02T12:00:08.523Z,1500.00
2023-01-02T12:01:08.493Z,1488.00
2023-01-02T12:02:08.552Z,1480.00
2023-01-02T12:03:11.540Z,1512.00
2023-01-02T12:04:09.513Z,1556.00
2023-01-02T12:05:08.454Z,1608.00
2023-01-02T12:06:08.426Z,1640.00
2023-01-02T12:07:08.423Z,1668.00
2023-01-02T12:08:08.433Z,1704.00
2023-01-02T12:09:08.401Z,1696.00
2023-01-02T12:10:08.379Z,1700.00
2023-01-02T12:11:08.369Z,1672.00
2023-01-02T12:12:08.371Z,1672.00
2023-01-02T12:13:08.347Z,1640.00
2023-01-02T12:14:08.323Z,1592.00
2023-01-02T12:15:08.342Z,1600.00
2023-01-02T12:16:08.439Z,1620.00
2023-01-02T12:17:08.296Z,1592.00
2023-01-02T12:18:08.273Z,1556.00
2023-01-02T12:19:08.258Z,1516.00
2023-01-02T12:20:08.237Z,1496.00
2023-01-02T12:21:08.257Z,1484.00
2023-01-02T12:22:08.205Z,1480.00
2023-01-02T12:23:08.218Z,1404.00
2023-01-02T12:24:08.186Z,1384.00
2023-01-02T12:25:08.186Z,1372.00
2023-01-02T12:26:09.777Z,1344.00
2023-01-02T12:27:08.175Z,1352.00
2023-01-02T12:28:08.153Z,1348.00
2023-01-02T12:29:08.134Z,1352.00
2023-01-02T12:30:08.107Z,1376.00
2023-01-02T12:31:08.103Z,1388.00
2023-01-02T12:32:08.137Z,1360.00
2023-01-02T12:33:08.087Z,1352.00
2023-01-02T12:34:08.050Z,1352.00
2023-01-02T12:35:08.076Z,1356.00
2023-01-02T12:36:08.043Z,1356.00
2023-01-02T12:37:08.029Z,1344.00
2023-01-02T12:38:08.037Z,1348.00
2023-01-02T12:39:07.996Z,1360.00
2023-01-02T12:40:08.002Z,1352.00
2023-01-02T12:41:07.963Z,1340.00
2023-01-02T12:42:07.965Z,1320.00
2023-01-02T12:43:07.949Z,1296.00
2023-01-02T12:44:07.932Z,1272.00
2023-01-02T12:45:07.911Z,1244.00
2023-01-02T12:46:07.936Z,1220.00
2023-01-02T12:47:07.883Z,1200.00
2023-01-02T12:48:07.892Z,1176.00
2023-01-02T12:49:07.886Z,1156.00
2023-01-02T12:50:07.858Z,1132.00
2023-01-02T12:51:07.830Z,1120.00